Time;durP1;ratioP1;P1;durP2;ratioP2;P2;SDS_P1;SDS_P2;PMS_P1;PMS_P2;Temp;Humidity;BMP_temperature;BMP_pressure;BME280_temperature;BME280_humidity;BME280_pressure;Samples;Min_cycle;Max_cycle;Signal;HPM_P1;HPM_P2
2024/04/03 00:01:37;;;;;;;1.00;1.00;;;10.40;99.90;;;;;;5089654;28;20748;-76
2024/04/03 00:04:03;;;;;;;1.77;1.30;;;10.50;99.90;;;;;;5089634;28;20302;-76
2024/04/03 00:06:30;;;;;;;1.40;1.30;;;10.50;99.90;;;;;;5087508;28;20202;-76
2024/04/03 00:08:57;;;;;;;2.30;1.80;;;10.50;99.90;;;;;;5069535;28;20230;-76
2024/04/03 00:11:25;;;;;;;1.73;1.40;;;10.50;99.90;;;;;;5070551;28;20723;-76
2024/04/03 00:13:51;;;;;;;2.07;1.60;;;10.50;99.90;;;;;;5068455;28;20701;-76
2024/04/03 00:16:18;;;;;;;1.83;1.57;;;10.50;99.90;;;;;;5069236;28;20229;-76
2024/04/03 00:18:43;;;;;;;3.03;1.50;;;10.50;99.90;;;;;;5077240;28;20203;-76
2024/04/03 00:21:10;;;;;;;2.27;1.67;;;10.50;99.90;;;;;;5078327;28;20276;-76
2024/04/03 00:23:36;;;;;;;1.70;1.60;;;10.50;99.90;;;;;;5071667;28;20235;-76
2024/04/03 00:26:05;;;;;;;2.77;1.63;;;10.50;99.90;;;;;;5085424;28;20322;-76
2024/04/03 00:28:31;;;;;;;1.50;1.40;;;10.40;99.90;;;;;;5089026;28;20317;-76
2024/04/03 00:31:02;;;;;;;1.60;1.50;;;10.50;99.90;;;;;;5082496;28;20309;-76
2024/04/03 00:33:28;;;;;;;2.47;1.80;;;10.50;99.90;;;;;;5085599;28;20215;-76
2024/04/03 00:35:56;;;;;;;2.00;1.80;;;10.50;99.90;;;;;;5071593;28;20285;-76
2024/04/03 00:38:22;;;;;;;2.60;1.47;;;10.40;99.90;;;;;;5089064;28;20310;-76
2024/04/03 00:40:56;;;;;;;2.20;1.80;;;10.40;99.90;;;;;;5088559;28;20286;-76
2024/04/03 00:43:24;;;;;;;1.90;1.70;;;10.40;99.90;;;;;;5074810;28;20285;-76
2024/04/03 00:45:53;;;;;;;3.73;2.47;;;10.40;99.90;;;;;;5068200;28;20654;-76
2024/04/03 00:48:20;;;;;;;2.30;2.07;;;10.40;99.90;;;;;;5068208;28;20243;-76
2024/04/03 00:50:47;;;;;;;3.17;1.97;;;10.40;99.90;;;;;;5069609;28;20207;-76
2024/04/03 00:53:14;;;;;;;4.23;2.10;;;10.40;99.90;;;;;;5087688;28;20313;-76
2024/04/03 00:55:42;;;;;;;2.80;1.90;;;10.40;99.90;;;;;;5087661;28;20303;-75
2024/04/03 00:58:07;;;;;;;2.80;2.00;;;10.40;99.90;;;;;;5088618;28;20207;-75
2024/04/03 01:00:36;;;;;;;2.30;2.00;;;10.50;99.90;;;;;;5087978;28;20221;-75
2024/04/03 01:03:03;;;;;;;2.10;1.80;;;10.50;99.90;;;;;;5078029;28;20209;-75
2024/04/03 01:05:30;;;;;;;2.37;2.07;;;10.50;99.90;;;;;;5067928;28;20260;-75
2024/04/03 01:07:56;;;;;;;2.63;1.93;;;10.50;99.90;;;;;;5083054;28;20282;-76
2024/04/03 01:10:23;;;;;;;2.37;1.90;;;10.50;99.90;;;;;;5087723;28;20254;-76
2024/04/03 01:12:50;;;;;;;2.37;1.90;;;10.50;99.90;;;;;;5088333;28;20290;-78
2024/04/03 01:15:16;;;;;;;2.60;2.40;;;10.50;99.90;;;;;;5088103;28;20606;-78
2024/04/03 01:17:47;;;;;;;2.83;2.27;;;10.50;99.90;;;;;;5076584;28;21023;-76
2024/04/03 01:20:13;;;;;;;2.27;2.07;;;10.50;99.90;;;;;;5084728;28;20214;-77
2024/04/03 01:22:40;;;;;;;3.30;2.23;;;10.50;99.90;;;;;;5085541;28;20836;-76
2024/04/03 01:25:07;;;;;;;2.83;2.50;;;10.40;99.90;;;;;;5087830;28;20222;-76
2024/04/03 01:27:34;;;;;;;2.40;2.30;;;10.30;99.90;;;;;;5088061;28;20210;-76
2024/04/03 01:30:00;;;;;;;2.53;2.23;;;10.30;99.90;;;;;;5076122;28;20294;-76
2024/04/03 01:32:28;;;;;;;4.23;2.50;;;10.30;99.90;;;;;;5088076;28;20207;-76
2024/04/03 01:34:54;;;;;;;3.90;2.10;;;10.30;99.90;;;;;;5087304;28;20291;-76
2024/04/03 01:37:21;;;;;;;2.43;2.23;;;10.30;99.90;;;;;;5082395;28;20286;-76
2024/04/03 01:39:47;;;;;;;3.07;2.47;;;10.40;99.90;;;;;;5082717;28;20311;-78
2024/04/03 01:42:16;;;;;;;3.33;2.37;;;10.40;99.90;;;;;;5077661;28;20238;-76
2024/04/03 01:44:42;;;;;;;3.03;2.40;;;10.40;99.90;;;;;;5073905;28;20207;-76
2024/04/03 01:47:09;;;;;;;3.93;2.53;;;10.40;99.90;;;;;;5083633;28;20657;-76
2024/04/03 01:49:34;;;;;;;3.03;2.50;;;10.40;99.90;;;;;;5084563;28;20278;-76
2024/04/03 01:52:01;;;;;;;3.80;2.57;;;10.40;99.90;;;;;;5070275;28;20195;-76
2024/04/03 01:54:27;;;;;;;3.57;2.30;;;10.40;99.90;;;;;;5086498;28;20322;-77
2024/04/03 01:56:54;;;;;;;4.30;2.43;;;10.50;99.90;;;;;;5087759;28;20297;-76
2024/04/03 01:59:22;;;;;;;5.93;2.80;;;10.40;99.90;;;;;;5086264;28;20638;-76
2024/04/03 02:01:49;;;;;;;3.37;2.70;;;10.40;99.90;;;;;;5087291;28;20203;-76
2024/04/03 02:04:15;;;;;;;3.63;2.83;;;10.40;99.90;;;;;;5087278;28;20206;-76
2024/04/03 02:06:42;;;;;;;4.17;2.70;;;10.40;99.90;;;;;;5087327;28;20257;-76
2024/04/03 02:09:08;;;;;;;3.13;2.47;;;10.40;99.90;;;;;;5085305;28;20234;-77
2024/04/03 02:11:34;;;;;;;3.57;2.77;;;10.40;99.90;;;;;;5074516;28;20300;-76
2024/04/03 02:14:00;;;;;;;3.70;3.13;;;10.40;99.90;;;;;;5079894;28;20238;-76
2024/04/03 02:16:30;;;;;;;6.00;2.83;;;10.40;99.90;;;;;;5087436;28;20199;-78
2024/04/03 02:18:56;;;;;;;3.90;2.70;;;10.50;99.90;;;;;;5087137;28;20301;-77
2024/04/03 02:21:23;;;;;;;4.80;3.20;;;10.50;99.90;;;;;;5087685;28;20217;-76
2024/04/03 02:23:49;;;;;;;3.77;2.80;;;10.50;99.90;;;;;;5078945;28;20229;-76
2024/04/03 02:26:16;;;;;;;3.00;2.80;;;10.40;99.90;;;;;;5073980;28;20222;-75
2024/04/03 02:28:41;;;;;;;5.50;3.10;;;10.40;99.90;;;;;;5098078;28;20228;-77
2024/04/03 02:31:08;;;;;;;3.03;2.83;;;10.40;99.90;;;;;;5102107;27;20202;-77
2024/04/03 02:33:35;;;;;;;5.17;3.40;;;10.40;99.90;;;;;;5098915;27;20320;-77
2024/04/03 02:36:09;;;;;;;4.70;3.00;;;10.40;99.90;;;;;;5096634;28;20293;-77
2024/04/03 02:38:35;;;;;;;5.43;3.37;;;10.40;99.90;;;;;;5087865;28;20246;-77
2024/04/03 02:41:01;;;;;;;5.97;3.50;;;10.40;99.90;;;;;;5106387;27;20197;-77
2024/04/03 02:43:28;;;;;;;3.50;3.20;;;10.40;99.90;;;;;;5096123;28;20201;-77
2024/04/03 02:45:55;;;;;;;3.77;3.40;;;10.40;99.90;;;;;;5112042;27;20747;-77
2024/04/03 02:48:22;;;;;;;3.43;3.10;;;10.40;99.90;;;;;;5093851;27;20290;-78
2024/04/03 02:50:49;;;;;;;4.00;3.60;;;10.40;99.90;;;;;;5091155;28;20351;-75
2024/04/03 02:53:16;;;;;;;3.57;3.27;;;10.40;99.90;;;;;;5088724;28;20226;-75
2024/04/03 02:55:42;;;;;;;6.43;3.30;;;10.40;99.90;;;;;;5090948;28;20716;-75
2024/04/03 02:58:09;;;;;;;3.60;3.30;;;10.40;99.90;;;;;;5091224;28;20202;-75
2024/04/03 03:00:35;;;;;;;5.13;3.70;;;10.40;99.90;;;;;;5076845;28;20298;-75
2024/04/03 03:03:03;;;;;;;4.93;3.80;;;10.40;99.90;;;;;;5077318;28;20294;-74
2024/04/03 03:05:28;;;;;;;3.63;3.33;;;10.40;99.90;;;;;;5071657;28;20715;-75
2024/04/03 03:07:58;;;;;;;5.47;3.40;;;10.40;99.90;;;;;;5071840;28;20247;-75
2024/04/03 03:10:24;;;;;;;6.33;3.70;;;10.40;99.90;;;;;;5075263;28;20305;-74
2024/04/03 03:12:50;;;;;;;5.37;3.20;;;10.40;99.90;;;;;;5092161;28;20323;-74
2024/04/03 03:15:16;;;;;;;4.50;3.50;;;10.40;99.90;;;;;;5092634;28;20341;-74
2024/04/03 03:17:43;;;;;;;4.80;3.67;;;10.40;99.90;;;;;;5093510;28;20290;-75
2024/04/03 03:20:09;;;;;;;5.13;3.80;;;10.40;99.90;;;;;;5078322;28;20288;-75
2024/04/03 03:22:36;;;;;;;4.80;3.83;;;10.40;99.90;;;;;;5072178;28;20929;-75
2024/04/03 03:25:05;;;;;;;3.90;3.60;;;10.30;99.90;;;;;;5072934;28;20641;-75
2024/04/03 03:27:33;;;;;;;5.30;3.80;;;10.30;99.90;;;;;;5072874;28;20241;-74
2024/04/03 03:29:59;;;;;;;4.53;4.13;;;10.20;99.90;;;;;;5079528;28;20218;-74
2024/04/03 03:32:26;;;;;;;6.03;3.77;;;10.20;99.90;;;;;;5093288;28;20206;-75
2024/04/03 03:34:51;;;;;;;4.43;4.07;;;10.20;99.90;;;;;;5089008;28;20752;-74
2024/04/03 03:37:18;;;;;;;5.33;4.50;;;10.30;99.90;;;;;;5089993;28;20255;-74
2024/04/03 03:39:45;;;;;;;4.50;4.10;;;10.20;99.90;;;;;;5089866;28;20525;-74
2024/04/03 03:42:13;;;;;;;6.13;4.60;;;10.20;99.90;;;;;;5089744;28;20289;-74
2024/04/03 03:44:40;;;;;;;7.73;4.87;;;10.20;99.90;;;;;;5089702;28;20194;-73
2024/04/03 03:47:06;;;;;;;6.27;4.70;;;10.10;99.90;;;;;;5089387;28;20275;-72
2024/04/03 03:55:02;;;;;;;7.23;5.23;;;10.10;99.90;;;;;;5068883;28;20218;-73
2024/04/03 03:57:31;;;;;;;6.67;4.70;;;10.20;99.90;;;;;;5069431;28;20200;-73
2024/04/03 03:59:58;;;;;;;6.93;5.60;;;10.20;99.90;;;;;;5069944;28;20226;-73
2024/04/03 04:02:26;;;;;;;6.13;4.93;;;10.10;99.90;;;;;;5089458;28;20218;-73
2024/04/03 04:04:52;;;;;;;6.23;5.70;;;10.10;99.90;;;;;;5089163;28;21101;-73
2024/04/03 04:07:20;;;;;;;5.43;4.43;;;10.10;99.90;;;;;;5079021;28;20322;-73
2024/04/03 04:09:47;;;;;;;5.13;4.13;;;10.00;99.90;;;;;;5088792;28;20724;-73
2024/04/03 04:12:14;;;;;;;4.07;3.67;;;9.80;99.90;;;;;;5089310;28;20207;-73
2024/04/03 04:14:47;;;;;;;4.40;4.00;;;9.80;99.90;;;;;;5088769;28;20337;-73
2024/04/03 04:17:14;;;;;;;4.23;3.50;;;9.80;99.90;;;;;;5069069;28;20192;-73
2024/04/03 04:19:40;;;;;;;4.13;3.33;;;9.70;99.90;;;;;;5068918;28;20257;-73
2024/04/03 04:22:07;;;;;;;4.30;4.00;;;9.60;99.90;;;;;;5068781;28;20211;-73
2024/04/03 04:24:36;;;;;;;4.17;3.87;;;9.60;99.90;;;;;;5068711;28;20277;-73
2024/04/03 04:27:04;;;;;;;3.73;3.43;;;9.60;99.90;;;;;;5082233;28;20203;-73
2024/04/03 04:29:30;;;;;;;3.90;3.50;;;9.60;99.90;;;;;;5088922;28;20306;-73
2024/04/03 04:31:59;;;;;;;3.57;3.27;;;9.50;99.90;;;;;;5088752;28;20203;-73
2024/04/03 04:34:26;;;;;;;3.73;3.37;;;9.50;99.90;;;;;;5088430;28;20235;-73
2024/04/03 04:36:53;;;;;;;3.73;3.27;;;9.50;99.90;;;;;;5088591;28;20207;-73
2024/04/03 04:39:19;;;;;;;3.47;3.17;;;9.50;99.90;;;;;;5088368;28;20771;-73
2024/04/03 04:41:49;;;;;;;4.60;3.27;;;9.60;99.90;;;;;;5088590;28;20211;-73
2024/04/03 04:44:15;;;;;;;5.50;2.83;;;9.50;99.90;;;;;;5088567;28;20207;-73
2024/04/03 04:46:42;;;;;;;4.13;2.80;;;9.50;99.90;;;;;;5087384;28;20216;-73
2024/04/03 04:49:09;;;;;;;3.83;3.17;;;9.50;99.90;;;;;;5088338;28;20613;-73
2024/04/03 04:51:36;;;;;;;3.67;2.87;;;9.50;99.90;;;;;;5088359;28;20199;-73
2024/04/03 04:54:02;;;;;;;3.83;3.37;;;9.50;99.90;;;;;;5088463;28;20298;-73
2024/04/03 04:56:29;;;;;;;5.30;3.43;;;9.50;99.90;;;;;;5088203;28;20233;-73
2024/04/03 04:58:55;;;;;;;4.77;3.23;;;9.50;99.90;;;;;;5088316;28;20309;-73
2024/04/03 05:01:22;;;;;;;3.17;2.97;;;9.50;99.90;;;;;;5078398;28;20213;-73
2024/04/03 05:03:48;;;;;;;3.60;3.30;;;9.50;99.90;;;;;;5082113;28;20209;-73
2024/04/03 05:06:17;;;;;;;4.97;3.10;;;9.50;99.90;;;;;;5088101;28;20203;-73
2024/04/03 05:08:43;;;;;;;4.30;3.30;;;9.50;99.90;;;;;;5088111;28;20234;-73
2024/04/03 05:11:10;;;;;;;3.73;3.10;;;9.50;99.90;;;;;;5080301;28;20751;-73
2024/04/03 05:13:37;;;;;;;3.53;2.93;;;9.50;99.90;;;;;;5087926;28;20203;-74
2024/04/03 05:16:07;;;;;;;3.87;3.30;;;9.60;99.90;;;;;;5087798;28;20580;-73
2024/04/03 05:18:34;;;;;;;3.93;3.20;;;9.50;99.90;;;;;;5087850;28;20207;-73
2024/04/03 05:21:01;;;;;;;3.50;3.20;;;9.50;99.90;;;;;;5087471;28;20241;-73
2024/04/03 05:23:29;;;;;;;3.30;2.80;;;9.60;99.90;;;;;;5072406;28;20243;-72
2024/04/03 05:25:57;;;;;;;4.60;2.67;;;9.70;99.90;;;;;;5067227;28;20228;-73
2024/04/03 05:28:23;;;;;;;4.03;2.90;;;9.70;99.90;;;;;;5067525;28;20742;-72
2024/04/03 05:30:50;;;;;;;4.70;2.67;;;9.70;99.90;;;;;;5075240;28;20282;-73
2024/04/03 05:33:16;;;;;;;3.30;2.60;;;9.70;99.90;;;;;;5087593;28;20242;-73
2024/04/03 05:35:42;;;;;;;2.73;2.33;;;9.70;99.90;;;;;;5087207;28;20720;-73
2024/04/03 05:38:08;;;;;;;3.30;2.40;;;9.70;99.90;;;;;;5087401;28;20203;-73
2024/04/03 05:40:38;;;;;;;3.37;2.43;;;9.80;99.90;;;;;;5087346;28;20653;-74
2024/04/03 05:43:03;;;;;;;2.30;2.10;;;9.70;99.90;;;;;;5086957;28;20797;-73
2024/04/03 05:45:30;;;;;;;3.40;2.60;;;9.70;99.90;;;;;;5066726;28;20208;-73
2024/04/03 05:47:58;;;;;;;4.40;2.70;;;9.70;99.90;;;;;;5067122;28;20210;-73
2024/04/03 05:50:25;;;;;;;2.67;2.20;;;9.60;99.90;;;;;;5067350;28;20223;-73
2024/04/03 05:52:51;;;;;;;2.13;2.00;;;9.70;99.90;;;;;;5066616;28;20452;-72
2024/04/03 05:55:18;;;;;;;5.10;2.90;;;9.70;99.90;;;;;;5066611;28;20227;-73
2024/04/03 05:57:45;;;;;;;5.80;3.10;;;9.60;99.90;;;;;;5066511;28;20731;-73
2024/04/03 06:00:13;;;;;;;9.17;3.27;;;9.60;99.90;;;;;;5075972;28;20203;-73
2024/04/03 06:02:39;;;;;;;4.10;3.10;;;9.60;99.90;;;;;;5087038;28;20206;-73
2024/04/03 06:05:06;;;;;;;3.20;2.90;;;9.60;99.90;;;;;;5086611;28;20665;-73
2024/04/03 06:07:33;;;;;;;2.90;2.70;;;9.60;99.90;;;;;;5079234;28;20668;-74
2024/04/03 06:10:00;;;;;;;3.20;2.80;;;9.60;99.90;;;;;;5086791;28;20202;-73
2024/04/03 06:12:27;;;;;;;4.07;2.70;;;9.60;99.90;;;;;;5086859;28;20280;-73
2024/04/03 06:14:55;;;;;;;4.80;3.10;;;9.60;99.90;;;;;;5086256;28;20238;-73
2024/04/03 06:17:21;;;;;;;4.80;3.10;;;9.70;99.90;;;;;;5087223;28;20602;-73
2024/04/03 06:19:48;;;;;;;4.30;3.30;;;9.70;99.90;;;;;;5086733;28;20718;-73
2024/04/03 06:22:14;;;;;;;3.60;3.00;;;9.70;99.90;;;;;;5086612;28;20236;-73
2024/04/03 06:24:42;;;;;;;5.10;3.20;;;9.80;99.90;;;;;;5087129;28;20230;-73
2024/04/03 06:27:08;;;;;;;5.07;3.50;;;9.70;99.90;;;;;;5086814;28;20206;-73
2024/04/03 06:29:35;;;;;;;3.43;3.20;;;9.80;99.90;;;;;;5086909;28;20212;-73
2024/04/03 06:32:03;;;;;;;3.87;3.40;;;9.80;99.90;;;;;;5086945;28;20211;-73
2024/04/03 06:34:30;;;;;;;4.97;3.67;;;9.80;99.90;;;;;;5086892;28;20337;-73
2024/04/03 06:36:56;;;;;;;3.90;3.07;;;9.70;99.90;;;;;;5086708;28;20206;-73
2024/04/03 06:39:23;;;;;;;3.43;3.13;;;9.80;99.90;;;;;;5086403;28;20264;-73
2024/04/03 06:41:49;;;;;;;3.60;3.30;;;9.80;99.90;;;;;;5066391;28;20250;-73
2024/04/03 06:44:16;;;;;;;3.93;3.13;;;9.80;99.90;;;;;;5066542;28;20231;-73
2024/04/03 06:46:42;;;;;;;4.67;3.50;;;9.80;99.90;;;;;;5066823;28;20234;-73
2024/04/03 06:49:12;;;;;;;4.07;3.60;;;9.80;99.90;;;;;;5066393;28;20232;-73
2024/04/03 06:51:38;;;;;;;5.97;3.90;;;9.80;99.90;;;;;;5066184;28;20290;-73
2024/04/03 06:54:07;;;;;;;4.07;3.67;;;9.70;99.90;;;;;;5066002;28;20219;-73
2024/04/03 06:56:33;;;;;;;5.80;3.43;;;9.80;99.90;;;;;;5075668;28;20345;-73
2024/04/03 06:59:00;;;;;;;4.87;3.90;;;9.80;99.90;;;;;;5086412;28;21037;-73
2024/04/03 07:01:26;;;;;;;3.83;3.50;;;9.90;99.90;;;;;;5086598;28;20302;-73
2024/04/03 07:03:53;;;;;;;4.47;4.07;;;9.90;99.90;;;;;;5086351;28;20820;-73
2024/04/03 07:06:21;;;;;;;6.77;4.20;;;9.90;99.90;;;;;;5086385;28;20329;-73
2024/04/03 07:08:49;;;;;;;6.27;4.07;;;9.90;99.90;;;;;;5087221;28;20202;-73
2024/04/03 07:11:15;;;;;;;4.03;3.73;;;9.90;99.90;;;;;;5080533;28;20214;-73
2024/04/03 07:13:42;;;;;;;4.43;3.77;;;10.00;99.90;;;;;;5069517;28;20218;-74
2024/04/03 07:16:08;;;;;;;4.37;3.90;;;10.00;99.90;;;;;;5085924;28;20707;-74
2024/04/03 07:18:39;;;;;;;6.03;3.80;;;10.00;99.90;;;;;;5090268;28;20203;-74
2024/04/03 07:21:05;;;;;;;4.00;3.60;;;10.00;99.90;;;;;;5089948;28;20203;-74
2024/04/03 07:23:33;;;;;;;4.07;3.67;;;10.10;99.90;;;;;;5090270;28;20610;-74
2024/04/03 07:25:59;;;;;;;4.87;3.13;;;10.10;99.90;;;;;;5089938;28;20227;-74
2024/04/03 07:28:28;;;;;;;3.77;3.00;;;10.10;99.90;;;;;;5089823;28;20225;-74
2024/04/03 07:30:53;;;;;;;4.83;3.30;;;10.10;99.90;;;;;;5089816;28;20218;-74
2024/04/03 07:33:23;;;;;;;5.77;3.47;;;10.20;99.90;;;;;;5090197;28;20211;-73
2024/04/03 07:35:49;;;;;;;5.93;3.30;;;10.20;99.90;;;;;;5089458;28;20325;-74
2024/04/03 07:38:19;;;;;;;5.07;3.30;;;10.20;99.90;;;;;;5089578;28;20203;-74
2024/04/03 07:40:48;;;;;;;3.60;3.30;;;10.30;99.90;;;;;;5089893;28;20215;-74
2024/04/03 07:43:15;;;;;;;6.10;3.30;;;10.30;99.90;;;;;;5089862;28;20276;-74
2024/04/03 07:45:41;;;;;;;3.27;2.97;;;10.30;99.90;;;;;;5089737;28;20732;-73
2024/04/03 07:48:08;;;;;;;3.03;2.80;;;10.30;99.90;;;;;;5089799;28;20306;-74
2024/04/03 07:50:34;;;;;;;2.90;2.70;;;10.30;99.90;;;;;;5089855;28;20202;-74
2024/04/03 07:53:01;;;;;;;4.27;2.90;;;10.30;99.90;;;;;;5083462;28;20203;-74
2024/04/03 07:55:27;;;;;;;3.17;2.70;;;10.40;99.90;;;;;;5089637;28;20326;-74
2024/04/03 07:57:55;;;;;;;4.23;3.80;;;10.40;99.90;;;;;;5089596;28;20287;-74
2024/04/03 08:00:21;;;;;;;6.57;4.70;;;10.50;99.90;;;;;;5089590;28;20207;-74
2024/04/03 08:02:48;;;;;;;4.50;4.03;;;10.50;99.90;;;;;;5089750;28;20217;-74
2024/04/03 08:05:14;;;;;;;5.33;4.57;;;10.60;99.90;;;;;;5089189;28;20250;-73
2024/04/03 08:07:42;;;;;;;8.33;5.20;;;10.70;99.90;;;;;;5088776;28;20207;-74
2024/04/03 08:10:09;;;;;;;6.23;5.70;;;10.80;99.90;;;;;;5088963;28;20295;-73
2024/04/03 08:12:38;;;;;;;6.07;5.57;;;10.90;99.90;;;;;;5071080;28;20239;-74
2024/04/03 08:15:06;;;;;;;6.27;5.67;;;10.90;99.90;;;;;;5078373;28;20246;-74
2024/04/03 08:17:33;;;;;;;6.97;5.60;;;11.10;99.90;;;;;;5088962;28;20207;-74
2024/04/03 08:19:59;;;;;;;6.40;5.80;;;11.30;99.90;;;;;;5088646;28;20207;-74
2024/04/03 08:22:26;;;;;;;5.87;5.37;;;11.40;99.90;;;;;;5088719;28;20256;-74
2024/04/03 08:24:52;;;;;;;9.77;5.50;;;11.50;99.90;;;;;;5088824;28;20656;-74
2024/04/03 08:27:19;;;;;;;5.90;5.13;;;11.50;99.90;;;;;;5088750;28;20329;-74
2024/04/03 08:29:48;;;;;;;6.23;5.63;;;11.60;99.90;;;;;;5089106;28;21196;-74
2024/04/03 08:32:16;;;;;;;6.20;5.60;;;11.50;99.90;;;;;;5088940;28;20599;-74
2024/04/03 08:34:43;;;;;;;5.57;5.13;;;11.50;99.90;;;;;;5088517;28;20289;-74
2024/04/03 08:37:10;;;;;;;6.90;4.73;;;11.50;99.90;;;;;;5088334;28;20210;-74
2024/04/03 08:39:36;;;;;;;5.97;5.27;;;11.50;99.90;;;;;;5088931;28;20676;-74
2024/04/03 08:42:04;;;;;;;5.37;4.97;;;11.40;99.90;;;;;;5088494;28;20203;-74
2024/04/03 08:44:32;;;;;;;5.53;5.03;;;11.30;99.90;;;;;;5088774;28;20289;-74
2024/04/03 08:46:59;;;;;;;5.53;4.97;;;11.30;99.90;;;;;;5088590;28;20238;-74
2024/04/03 08:49:28;;;;;;;6.07;4.77;;;11.40;99.90;;;;;;5075754;28;20290;-74
2024/04/03 08:52:01;;;;;;;5.03;4.63;;;11.50;99.90;;;;;;5067959;28;20666;-74
2024/04/03 08:54:28;;;;;;;5.27;4.77;;;11.50;99.90;;;;;;5068357;28;20237;-75
2024/04/03 08:56:55;;;;;;;4.80;4.40;;;11.40;99.90;;;;;;5076086;28;20238;-73
2024/04/03 08:59:21;;;;;;;6.13;4.47;;;11.40;99.90;;;;;;5088130;28;20736;-73
2024/04/03 09:01:49;;;;;;;4.57;4.17;;;11.40;99.90;;;;;;5088031;28;20297;-73
2024/04/03 09:04:16;;;;;;;6.40;4.47;;;11.40;99.90;;;;;;5088544;28;20298;-73
2024/04/03 09:06:45;;;;;;;4.57;4.27;;;11.30;99.90;;;;;;5087822;28;20206;-73
2024/04/03 09:09:18;;;;;;;5.10;4.60;;;11.30;99.90;;;;;;5067987;28;20745;-73
2024/04/03 09:11:46;;;;;;;5.27;4.77;;;11.20;99.90;;;;;;5067732;28;20648;-73
2024/04/03 09:14:19;;;;;;;6.00;4.23;;;11.40;99.90;;;;;;5067808;28;20655;-73
2024/04/03 09:16:46;;;;;;;4.90;4.30;;;11.40;99.90;;;;;;5067485;28;20288;-73
2024/04/03 09:19:12;;;;;;;4.30;3.90;;;11.30;99.90;;;;;;5067402;28;20211;-73
2024/04/03 09:21:39;;;;;;;4.33;3.93;;;11.30;99.90;;;;;;5067161;28;20214;-73
2024/04/03 09:24:07;;;;;;;4.30;3.83;;;11.30;99.90;;;;;;5067621;28;20223;-74
2024/04/03 09:26:34;;;;;;;7.23;4.13;;;11.30;99.90;;;;;;5067903;28;20207;-74
2024/04/03 09:29:01;;;;;;;6.03;3.57;;;11.40;99.90;;;;;;5075273;28;20202;-73
2024/04/03 09:31:28;;;;;;;3.93;3.50;;;11.50;99.90;;;;;;5086833;28;20657;-73
2024/04/03 09:33:55;;;;;;;4.70;4.30;;;11.50;99.90;;;;;;5087886;28;20289;-73
2024/04/03 09:36:22;;;;;;;4.60;4.03;;;11.50;99.90;;;;;;5087259;28;20713;-73
2024/04/03 09:38:49;;;;;;;4.20;3.80;;;11.60;99.90;;;;;;5087606;28;20294;-73
2024/04/03 09:41:19;;;;;;;4.43;3.87;;;11.80;99.90;;;;;;5087774;28;20293;-73
2024/04/03 09:43:48;;;;;;;4.30;3.87;;;12.00;99.90;;;;;;5087917;28;20919;-73
2024/04/03 09:46:15;;;;;;;4.37;3.97;;;12.20;99.90;;;;;;5086953;28;20218;-74
2024/04/03 09:48:47;;;;;;;3.93;3.53;;;12.20;99.90;;;;;;5087451;28;20238;-73
2024/04/03 09:51:14;;;;;;;4.03;3.73;;;12.20;99.90;;;;;;5087023;28;20191;-73
2024/04/03 09:53:40;;;;;;;5.00;4.50;;;12.40;99.90;;;;;;5087051;28;20195;-73
2024/04/03 09:56:08;;;;;;;4.30;3.90;;;12.40;99.90;;;;;;5087087;28;20671;-73
2024/04/03 09:58:37;;;;;;;4.83;4.33;;;12.50;99.90;;;;;;5087219;28;20267;-73
2024/04/03 10:01:05;;;;;;;5.57;4.33;;;12.50;99.90;;;;;;5077198;28;20214;-73
2024/04/03 10:03:34;;;;;;;5.00;4.37;;;12.50;99.90;;;;;;5066858;28;20218;-73
2024/04/03 10:06:03;;;;;;;5.17;4.30;;;12.50;99.90;;;;;;5066695;28;20270;-73
2024/04/03 10:08:34;;;;;;;5.47;3.97;;;12.50;99.90;;;;;;5084909;28;20210;-74
2024/04/03 10:11:05;;;;;;;4.93;4.13;;;12.60;99.90;;;;;;5087001;28;20217;-73
2024/04/03 10:13:32;;;;;;;4.90;4.50;;;12.60;99.90;;;;;;5087003;28;20282;-73
2024/04/03 10:16:05;;;;;;;5.30;4.27;;;12.60;99.90;;;;;;5086471;28;20319;-73
2024/04/03 10:18:34;;;;;;;4.57;4.10;;;12.40;99.90;;;;;;5086851;28;20246;-73
2024/04/03 10:21:02;;;;;;;4.30;3.90;;;12.50;99.90;;;;;;5086723;28;20282;-73
2024/04/03 10:23:27;;;;;;;4.63;4.20;;;12.60;99.90;;;;;;5086808;28;20306;-73
2024/04/03 10:25:56;;;;;;;5.63;4.33;;;12.30;99.90;;;;;;5073729;28;20318;-73
2024/04/03 10:28:22;;;;;;;4.57;4.03;;;12.40;99.90;;;;;;5066561;28;20326;-73
2024/04/03 10:30:54;;;;;;;6.00;4.70;;;12.50;99.90;;;;;;5074480;28;20757;-73
2024/04/03 10:33:22;;;;;;;6.43;4.20;;;12.40;99.90;;;;;;5086688;28;20638;-73
2024/04/03 10:35:50;;;;;;;5.07;4.20;;;12.40;99.90;;;;;;5086839;28;20570;-73
2024/04/03 10:38:15;;;;;;;4.80;4.50;;;12.40;99.90;;;;;;5086414;28;20714;-74
2024/04/03 10:40:42;;;;;;;5.27;4.30;;;12.50;99.90;;;;;;5077608;28;20227;-74
2024/04/03 10:43:08;;;;;;;4.93;4.20;;;12.50;99.90;;;;;;5070839;28;20290;-73
2024/04/03 10:45:36;;;;;;;4.90;4.50;;;12.50;99.90;;;;;;5070667;28;20207;-74
2024/04/03 10:48:02;;;;;;;6.17;4.70;;;12.40;99.90;;;;;;5070230;28;20218;-73
2024/04/03 10:50:32;;;;;;;5.00;4.10;;;12.40;99.90;;;;;;5087186;28;20211;-74
2024/04/03 10:52:58;;;;;;;4.67;4.23;;;12.30;99.90;;;;;;5090210;28;20198;-73
2024/04/03 10:55:29;;;;;;;5.60;3.80;;;12.30;99.90;;;;;;5090311;28;20320;-74
2024/04/03 10:57:55;;;;;;;5.90;4.50;;;12.30;99.90;;;;;;5091044;28;20230;-73
2024/04/03 11:00:22;;;;;;;4.30;3.80;;;12.20;99.90;;;;;;5090310;28;20328;-75
2024/04/03 11:02:48;;;;;;;5.40;4.47;;;12.20;99.90;;;;;;5090321;28;20207;-74
2024/04/03 11:05:15;;;;;;;4.70;4.30;;;12.10;99.90;;;;;;5090753;28;20210;-74
2024/04/03 11:07:43;;;;;;;6.67;4.43;;;12.10;99.90;;;;;;5090401;28;20322;-74
2024/04/03 11:10:12;;;;;;;5.03;4.03;;;12.10;99.90;;;;;;5090251;28;20578;-73
2024/04/03 11:12:38;;;;;;;4.70;4.30;;;12.10;99.90;;;;;;5090570;28;20297;-73
2024/04/03 11:15:07;;;;;;;5.00;4.50;;;12.10;99.90;;;;;;5089837;28;20262;-73
2024/04/03 11:17:33;;;;;;;8.70;4.90;;;12.10;99.90;;;;;;5090483;28;20234;-73
2024/04/03 11:20:00;;;;;;;6.80;4.17;;;12.10;99.90;;;;;;5089766;28;20859;-73
2024/04/03 11:22:26;;;;;;;5.90;4.33;;;12.10;99.90;;;;;;5090117;28;20286;-73
2024/04/03 11:24:55;;;;;;;6.77;4.23;;;12.10;99.90;;;;;;5090007;28;20249;-74
2024/04/03 11:27:21;;;;;;;5.43;4.03;;;12.00;99.90;;;;;;5090245;28;20218;-73
2024/04/03 11:29:48;;;;;;;6.07;4.47;;;12.00;99.90;;;;;;5089962;28;20206;-74
2024/04/03 11:32:16;;;;;;;5.30;4.13;;;11.90;99.90;;;;;;5090041;28;20211;-73
2024/04/03 11:34:43;;;;;;;5.80;4.83;;;11.90;99.90;;;;;;5089984;28;20211;-73
2024/04/03 11:37:09;;;;;;;5.17;4.50;;;11.90;99.90;;;;;;5088544;28;20234;-74
2024/04/03 11:39:36;;;;;;;6.60;4.83;;;12.00;99.90;;;;;;5069423;28;20298;-73
2024/04/03 11:42:03;;;;;;;8.37;4.70;;;12.00;99.90;;;;;;5069849;28;20260;-74
2024/04/03 11:44:30;;;;;;;6.23;4.53;;;12.00;99.90;;;;;;5069600;28;20299;-73
2024/04/03 11:46:56;;;;;;;6.13;5.53;;;12.00;99.90;;;;;;5087942;28;20625;-74
2024/04/03 11:49:23;;;;;;;7.50;5.30;;;12.00;99.90;;;;;;5089763;28;20273;-73
2024/04/03 11:51:49;;;;;;;8.63;5.77;;;11.90;99.90;;;;;;5089580;28;20207;-74
2024/04/03 11:54:17;;;;;;;5.20;4.60;;;11.90;99.90;;;;;;5089283;28;20276;-73
2024/04/03 11:56:42;;;;;;;7.47;5.13;;;11.80;99.90;;;;;;5078925;28;20259;-74
2024/04/03 11:59:11;;;;;;;5.40;4.80;;;11.70;99.90;;;;;;5071440;28;20847;-74
2024/04/03 12:01:37;;;;;;;7.23;4.97;;;11.80;99.90;;;;;;5089381;28;20298;-73
2024/04/03 12:04:04;;;;;;;8.83;5.13;;;11.80;99.90;;;;;;5089505;28;20286;-73
2024/04/03 12:06:30;;;;;;;8.67;4.87;;;11.80;99.90;;;;;;5089348;28;20234;-73
2024/04/03 12:08:57;;;;;;;5.63;4.97;;;11.90;99.90;;;;;;5089362;28;20203;-73
2024/04/03 12:11:23;;;;;;;6.80;4.70;;;11.90;99.90;;;;;;5089334;28;20568;-73
2024/04/03 12:13:50;;;;;;;6.17;4.80;;;11.90;99.90;;;;;;5089306;28;20248;-74
2024/04/03 12:16:20;;;;;;;5.53;4.77;;;12.00;99.90;;;;;;5089078;28;20312;-73
2024/04/03 12:18:50;;;;;;;5.60;4.97;;;12.00;99.90;;;;;;5089267;28;20316;-73
2024/04/03 12:21:17;;;;;;;7.13;5.50;;;12.10;99.90;;;;;;5089210;28;20241;-73
2024/04/03 12:23:45;;;;;;;6.60;5.37;;;12.20;99.90;;;;;;5088654;28;20222;-73
2024/04/03 12:26:12;;;;;;;10.83;5.23;;;12.20;99.90;;;;;;5088933;28;20294;-73
2024/04/03 12:28:39;;;;;;;8.63;5.77;;;12.20;99.90;;;;;;5088665;28;20211;-73
2024/04/03 12:31:05;;;;;;;8.87;5.53;;;12.30;99.90;;;;;;5088573;28;20302;-73
2024/04/03 12:33:33;;;;;;;7.40;5.70;;;12.20;99.90;;;;;;5082778;28;20221;-73
2024/04/03 12:35:59;;;;;;;6.47;5.00;;;12.20;99.90;;;;;;5088359;28;20786;-73
2024/04/03 12:38:26;;;;;;;9.20;5.90;;;12.30;99.90;;;;;;5088572;28;20206;-73
2024/04/03 12:40:53;;;;;;;10.10;5.97;;;12.40;99.90;;;;;;5088517;28;20371;-73
2024/04/03 12:43:20;;;;;;;10.00;5.60;;;12.40;99.90;;;;;;5088502;28;20210;-73
2024/04/03 12:45:50;;;;;;;9.27;5.90;;;12.40;99.90;;;;;;5088420;28;20268;-73
2024/04/03 12:48:17;;;;;;;7.97;5.57;;;12.40;99.90;;;;;;5088554;28;20639;-73
2024/04/03 12:50:44;;;;;;;6.07;5.30;;;12.40;99.90;;;;;;5087997;28;20622;-73
2024/04/03 12:53:11;;;;;;;6.77;5.13;;;12.40;99.90;;;;;;5087982;28;20218;-73